sensor_id;sensor_type;location;lat;lon;timestamp;P1;durP1;ratioP1;P2;durP2;ratioP2
28311;SDS011;15572;48.810;9.148;2024-02-15T00:03:19;1.90;;;1.10;;
28311;SDS011;15572;48.810;9.148;2024-02-15T00:08:17;4.47;;;1.20;;
28311;SDS011;15572;48.810;9.148;2024-02-15T00:13:15;4.70;;;1.20;;
28311;SDS011;15572;48.810;9.148;2024-02-15T00:18:12;4.80;;;1.23;;
28311;SDS011;15572;48.810;9.148;2024-02-15T00:23:08;3.73;;;1.70;;
28311;SDS011;15572;48.810;9.148;2024-02-15T00:28:06;4.20;;;1.80;;
28311;SDS011;15572;48.810;9.148;2024-02-15T00:33:02;3.23;;;2.03;;
28311;SDS011;15572;48.810;9.148;2024-02-15T00:37:59;3.87;;;1.73;;
28311;SDS011;15572;48.810;9.148;2024-02-15T00:42:56;4.77;;;1.13;;
28311;SDS011;15572;48.810;9.148;2024-02-15T00:47:53;1.47;;;1.03;;
28311;SDS011;15572;48.810;9.148;2024-02-15T00:52:51;3.37;;;1.47;;
28311;SDS011;15572;48.810;9.148;2024-02-15T00:57:47;3.53;;;1.30;;
28311;SDS011;15572;48.810;9.148;2024-02-15T01:02:43;2.53;;;1.20;;
28311;SDS011;15572;48.810;9.148;2024-02-15T01:07:42;2.63;;;1.20;;
28311;SDS011;15572;48.810;9.148;2024-02-15T01:12:38;4.10;;;1.43;;
28311;SDS011;15572;48.810;9.148;2024-02-15T01:17:34;4.60;;;1.40;;
28311;SDS011;15572;48.810;9.148;2024-02-15T01:22:31;3.77;;;1.30;;
28311;SDS011;15572;48.810;9.148;2024-02-15T01:27:29;6.43;;;1.30;;
28311;SDS011;15572;48.810;9.148;2024-02-15T01:32:25;3.87;;;1.37;;
28311;SDS011;15572;48.810;9.148;2024-02-15T01:37:22;2.57;;;1.20;;
28311;SDS011;15572;48.810;9.148;2024-02-15T01:42:18;4.73;;;1.30;;
28311;SDS011;15572;48.810;9.148;2024-02-15T01:47:16;3.97;;;1.40;;
28311;SDS011;15572;48.810;9.148;2024-02-15T01:52:15;2.77;;;1.40;;
28311;SDS011;15572;48.810;9.148;2024-02-15T01:57:13;2.77;;;1.10;;
28311;SDS011;15572;48.810;9.148;2024-02-15T02:02:10;2.90;;;1.40;;
28311;SDS011;15572;48.810;9.148;2024-02-15T02:07:12;1.70;;;1.10;;
28311;SDS011;15572;48.810;9.148;2024-02-15T02:12:09;4.80;;;1.33;;
28311;SDS011;15572;48.810;9.148;2024-02-15T02:17:12;3.13;;;1.40;;
28311;SDS011;15572;48.810;9.148;2024-02-15T02:22:09;3.93;;;1.40;;
28311;SDS011;15572;48.810;9.148;2024-02-15T02:27:08;3.20;;;1.40;;
28311;SDS011;15572;48.810;9.148;2024-02-15T02:32:06;3.97;;;1.30;;
28311;SDS011;15572;48.810;9.148;2024-02-15T02:37:03;3.53;;;1.33;;
28311;SDS011;15572;48.810;9.148;2024-02-15T02:42:02;3.93;;;1.37;;
28311;SDS011;15572;48.810;9.148;2024-02-15T02:47:00;2.83;;;1.37;;
28311;SDS011;15572;48.810;9.148;2024-02-15T02:51:57;3.53;;;1.67;;
28311;SDS011;15572;48.810;9.148;2024-02-15T02:56:53;5.43;;;1.70;;
28311;SDS011;15572;48.810;9.148;2024-02-15T03:01:49;3.23;;;1.57;;
28311;SDS011;15572;48.810;9.148;2024-02-15T03:06:47;3.03;;;1.33;;
28311;SDS011;15572;48.810;9.148;2024-02-15T03:11:44;3.73;;;1.47;;
28311;SDS011;15572;48.810;9.148;2024-02-15T03:16:40;3.47;;;1.50;;
28311;SDS011;15572;48.810;9.148;2024-02-15T03:21:36;3.77;;;1.60;;
28311;SDS011;15572;48.810;9.148;2024-02-15T03:26:34;3.70;;;1.73;;
28311;SDS011;15572;48.810;9.148;2024-02-15T03:31:33;3.67;;;1.60;;
28311;SDS011;15572;48.810;9.148;2024-02-15T03:36:31;4.03;;;1.50;;
28311;SDS011;15572;48.810;9.148;2024-02-15T03:41:28;3.07;;;1.77;;
28311;SDS011;15572;48.810;9.148;2024-02-15T03:46:29;4.60;;;1.93;;
28311;SDS011;15572;48.810;9.148;2024-02-15T03:51:25;5.40;;;2.00;;
28311;SDS011;15572;48.810;9.148;2024-02-15T03:56:22;4.00;;;1.40;;
28311;SDS011;15572;48.810;9.148;2024-02-15T04:01:18;2.43;;;1.60;;
28311;SDS011;15572;48.810;9.148;2024-02-15T04:06:16;5.93;;;1.70;;
28311;SDS011;15572;48.810;9.148;2024-02-15T04:11:13;6.73;;;1.90;;
28311;SDS011;15572;48.810;9.148;2024-02-15T04:16:11;3.43;;;1.50;;
28311;SDS011;15572;48.810;9.148;2024-02-15T04:21:08;4.10;;;2.00;;
28311;SDS011;15572;48.810;9.148;2024-02-15T04:26:06;2.90;;;2.03;;
28311;SDS011;15572;48.810;9.148;2024-02-15T04:31:03;2.80;;;1.90;;
28311;SDS011;15572;48.810;9.148;2024-02-15T04:36:00;4.03;;;1.50;;
28311;SDS011;15572;48.810;9.148;2024-02-15T04:40:59;2.23;;;1.60;;
28311;SDS011;15572;48.810;9.148;2024-02-15T04:46:00;2.13;;;1.47;;
28311;SDS011;15572;48.810;9.148;2024-02-15T04:50:57;2.63;;;1.30;;
28311;SDS011;15572;48.810;9.148;2024-02-15T04:55:54;4.53;;;1.37;;
28311;SDS011;15572;48.810;9.148;2024-02-15T05:00:50;2.50;;;1.30;;
28311;SDS011;15572;48.810;9.148;2024-02-15T05:05:51;3.77;;;1.50;;
28311;SDS011;15572;48.810;9.148;2024-02-15T05:10:47;3.23;;;1.57;;
28311;SDS011;15572;48.810;9.148;2024-02-15T05:15:43;1.83;;;1.30;;
28311;SDS011;15572;48.810;9.148;2024-02-15T05:20:40;3.80;;;1.53;;
28311;SDS011;15572;48.810;9.148;2024-02-15T05:25:38;3.63;;;1.43;;
28311;SDS011;15572;48.810;9.148;2024-02-15T05:30:34;4.80;;;1.80;;
28311;SDS011;15572;48.810;9.148;2024-02-15T05:35:32;5.40;;;1.90;;
28311;SDS011;15572;48.810;9.148;2024-02-15T05:40:31;4.43;;;1.53;;
28311;SDS011;15572;48.810;9.148;2024-02-15T05:45:29;4.87;;;1.40;;
28311;SDS011;15572;48.810;9.148;2024-02-15T05:50:31;5.40;;;1.50;;
28311;SDS011;15572;48.810;9.148;2024-02-15T05:55:27;4.20;;;1.77;;
28311;SDS011;15572;48.810;9.148;2024-02-15T06:00:26;3.50;;;1.30;;
28311;SDS011;15572;48.810;9.148;2024-02-15T06:05:26;1.37;;;1.13;;
28311;SDS011;15572;48.810;9.148;2024-02-15T06:10:22;3.10;;;1.30;;
28311;SDS011;15572;48.810;9.148;2024-02-15T06:15:19;2.60;;;1.40;;
28311;SDS011;15572;48.810;9.148;2024-02-15T06:20:16;3.07;;;1.33;;
28311;SDS011;15572;48.810;9.148;2024-02-15T06:25:16;2.53;;;1.50;;
28311;SDS011;15572;48.810;9.148;2024-02-15T06:30:15;3.07;;;1.20;;
28311;SDS011;15572;48.810;9.148;2024-02-15T06:35:29;2.83;;;1.33;;
28311;SDS011;15572;48.810;9.148;2024-02-15T06:40:45;3.30;;;1.47;;
28311;SDS011;15572;48.810;9.148;2024-02-15T06:45:41;2.20;;;1.20;;
28311;SDS011;15572;48.810;9.148;2024-02-15T06:50:41;2.23;;;1.30;;
28311;SDS011;15572;48.810;9.148;2024-02-15T06:55:37;3.90;;;1.43;;
28311;SDS011;15572;48.810;9.148;2024-02-15T07:00:36;2.87;;;1.40;;
28311;SDS011;15572;48.810;9.148;2024-02-15T07:05:35;4.20;;;1.70;;
28311;SDS011;15572;48.810;9.148;2024-02-15T07:10:33;2.53;;;1.53;;
28311;SDS011;15572;48.810;9.148;2024-02-15T07:15:29;3.80;;;1.80;;
28311;SDS011;15572;48.810;9.148;2024-02-15T07:20:29;3.83;;;1.30;;
28311;SDS011;15572;48.810;9.148;2024-02-15T07:25:26;2.20;;;1.50;;
28311;SDS011;15572;48.810;9.148;2024-02-15T07:30:22;6.40;;;1.60;;
28311;SDS011;15572;48.810;9.148;2024-02-15T07:35:19;4.70;;;1.60;;
28311;SDS011;15572;48.810;9.148;2024-02-15T07:40:16;5.10;;;1.57;;
28311;SDS011;15572;48.810;9.148;2024-02-15T07:45:13;2.80;;;1.50;;
28311;SDS011;15572;48.810;9.148;2024-02-15T07:50:10;3.50;;;1.87;;
28311;SDS011;15572;48.810;9.148;2024-02-15T07:55:08;5.07;;;2.37;;
28311;SDS011;15572;48.810;9.148;2024-02-15T08:00:06;2.47;;;1.90;;
28311;SDS011;15572;48.810;9.148;2024-02-15T08:05:06;2.80;;;1.90;;
28311;SDS011;15572;48.810;9.148;2024-02-15T08:10:05;2.87;;;1.70;;
28311;SDS011;15572;48.810;9.148;2024-02-15T08:15:09;2.60;;;1.63;;
28311;SDS011;15572;48.810;9.148;2024-02-15T08:20:07;2.70;;;1.30;;
28311;SDS011;15572;48.810;9.148;2024-02-15T08:25:06;2.17;;;1.40;;
28311;SDS011;15572;48.810;9.148;2024-02-15T08:30:05;2.43;;;1.40;;
28311;SDS011;15572;48.810;9.148;2024-02-15T08:35:06;4.90;;;1.53;;
28311;SDS011;15572;48.810;9.148;2024-02-15T08:40:04;2.87;;;1.57;;
28311;SDS011;15572;48.810;9.148;2024-02-15T08:45:07;2.47;;;1.57;;
28311;SDS011;15572;48.810;9.148;2024-02-15T08:50:07;3.67;;;1.50;;
28311;SDS011;15572;48.810;9.148;2024-02-15T08:55:05;3.27;;;1.50;;
28311;SDS011;15572;48.810;9.148;2024-02-15T09:00:03;3.03;;;1.47;;
28311;SDS011;15572;48.810;9.148;2024-02-15T09:05:06;6.10;;;2.00;;
28311;SDS011;15572;48.810;9.148;2024-02-15T09:10:03;4.30;;;2.60;;
28311;SDS011;15572;48.810;9.148;2024-02-15T09:15:02;7.10;;;3.30;;
28311;SDS011;15572;48.810;9.148;2024-02-15T09:19:59;8.50;;;3.30;;
28311;SDS011;15572;48.810;9.148;2024-02-15T09:24:57;6.27;;;3.10;;
28311;SDS011;15572;48.810;9.148;2024-02-15T09:29:53;6.00;;;3.30;;
28311;SDS011;15572;48.810;9.148;2024-02-15T09:34:50;9.97;;;2.70;;
28311;SDS011;15572;48.810;9.148;2024-02-15T09:39:47;4.47;;;2.83;;
28311;SDS011;15572;48.810;9.148;2024-02-15T09:44:45;6.33;;;2.60;;
28311;SDS011;15572;48.810;9.148;2024-02-15T09:49:41;3.97;;;1.80;;
28311;SDS011;15572;48.810;9.148;2024-02-15T09:54:38;4.23;;;1.70;;
28311;SDS011;15572;48.810;9.148;2024-02-15T09:59:35;3.43;;;1.10;;
28311;SDS011;15572;48.810;9.148;2024-02-15T10:04:33;2.93;;;1.40;;
28311;SDS011;15572;48.810;9.148;2024-02-15T10:09:30;4.17;;;1.63;;
28311;SDS011;15572;48.810;9.148;2024-02-15T10:14:28;6.53;;;2.07;;
28311;SDS011;15572;48.810;9.148;2024-02-15T10:19:25;3.50;;;1.80;;
28311;SDS011;15572;48.810;9.148;2024-02-15T10:24:23;5.63;;;2.00;;
28311;SDS011;15572;48.810;9.148;2024-02-15T10:29:20;5.17;;;1.97;;
28311;SDS011;15572;48.810;9.148;2024-02-15T10:34:16;3.60;;;1.77;;
28311;SDS011;15572;48.810;9.148;2024-02-15T10:39:14;2.97;;;1.83;;
28311;SDS011;15572;48.810;9.148;2024-02-15T10:44:16;4.80;;;1.90;;
28311;SDS011;15572;48.810;9.148;2024-02-15T10:49:14;4.87;;;1.70;;
28311;SDS011;15572;48.810;9.148;2024-02-15T10:54:12;4.53;;;2.00;;
28311;SDS011;15572;48.810;9.148;2024-02-15T10:59:14;4.90;;;1.80;;
28311;SDS011;15572;48.810;9.148;2024-02-15T11:04:15;3.27;;;1.80;;
28311;SDS011;15572;48.810;9.148;2024-02-15T11:09:16;12.93;;;5.10;;
28311;SDS011;15572;48.810;9.148;2024-02-15T11:14:24;4.63;;;1.60;;
28311;SDS011;15572;48.810;9.148;2024-02-15T11:19:43;2.53;;;1.30;;
28311;SDS011;15572;48.810;9.148;2024-02-15T11:24:47;5.40;;;1.17;;
28311;SDS011;15572;48.810;9.148;2024-02-15T11:29:51;3.07;;;1.30;;
28311;SDS011;15572;48.810;9.148;2024-02-15T11:34:50;2.30;;;1.10;;
28311;SDS011;15572;48.810;9.148;2024-02-15T11:39:47;2.40;;;1.10;;
28311;SDS011;15572;48.810;9.148;2024-02-15T11:44:45;2.00;;;1.20;;
28311;SDS011;15572;48.810;9.148;2024-02-15T11:49:43;2.30;;;1.10;;
28311;SDS011;15572;48.810;9.148;2024-02-15T11:54:40;2.93;;;1.30;;
28311;SDS011;15572;48.810;9.148;2024-02-15T11:59:39;5.13;;;1.13;;
28311;SDS011;15572;48.810;9.148;2024-02-15T12:04:49;1.97;;;1.40;;
28311;SDS011;15572;48.810;9.148;2024-02-15T12:10:04;3.07;;;1.57;;
28311;SDS011;15572;48.810;9.148;2024-02-15T12:15:18;2.63;;;1.40;;
28311;SDS011;15572;48.810;9.148;2024-02-15T12:20:33;1.93;;;1.10;;
28311;SDS011;15572;48.810;9.148;2024-02-15T12:25:30;3.57;;;1.30;;
28311;SDS011;15572;48.810;9.148;2024-02-15T12:30:34;2.53;;;1.20;;
28311;SDS011;15572;48.810;9.148;2024-02-15T12:35:33;1.97;;;1.27;;
28311;SDS011;15572;48.810;9.148;2024-02-15T12:40:30;2.85;;;1.10;;
28311;SDS011;15572;48.810;9.148;2024-02-15T12:45:27;3.23;;;1.30;;
28311;SDS011;15572;48.810;9.148;2024-02-15T12:50:27;4.37;;;1.33;;
28311;SDS011;15572;48.810;9.148;2024-02-15T12:55:26;3.05;;;1.23;;
28311;SDS011;15572;48.810;9.148;2024-02-15T13:00:22;3.33;;;1.17;;
28311;SDS011;15572;48.810;9.148;2024-02-15T13:05:24;3.00;;;1.27;;
28311;SDS011;15572;48.810;9.148;2024-02-15T13:10:22;3.45;;;1.27;;
28311;SDS011;15572;48.810;9.148;2024-02-15T13:15:20;2.50;;;1.70;;
28311;SDS011;15572;48.810;9.148;2024-02-15T13:20:22;2.90;;;1.48;;
28311;SDS011;15572;48.810;9.148;2024-02-15T13:25:27;2.30;;;1.33;;
28311;SDS011;15572;48.810;9.148;2024-02-15T13:30:24;3.87;;;1.30;;
28311;SDS011;15572;48.810;9.148;2024-02-15T13:35:22;5.18;;;1.30;;
28311;SDS011;15572;48.810;9.148;2024-02-15T13:40:19;4.18;;;1.42;;
28311;SDS011;15572;48.810;9.148;2024-02-15T13:45:18;3.42;;;1.20;;
28311;SDS011;15572;48.810;9.148;2024-02-15T13:50:19;4.63;;;1.40;;
28311;SDS011;15572;48.810;9.148;2024-02-15T13:55:16;2.13;;;1.10;;
28311;SDS011;15572;48.810;9.148;2024-02-15T14:00:14;3.10;;;1.42;;
28311;SDS011;15572;48.810;9.148;2024-02-15T14:05:18;2.20;;;1.10;;
28311;SDS011;15572;48.810;9.148;2024-02-15T14:10:16;1.80;;;1.30;;
28311;SDS011;15572;48.810;9.148;2024-02-15T14:15:14;3.17;;;0.90;;
28311;SDS011;15572;48.810;9.148;2024-02-15T14:20:12;2.30;;;1.40;;
28311;SDS011;15572;48.810;9.148;2024-02-15T14:25:11;2.47;;;1.20;;
28311;SDS011;15572;48.810;9.148;2024-02-15T14:30:08;2.40;;;1.30;;
28311;SDS011;15572;48.810;9.148;2024-02-15T14:35:22;2.63;;;1.30;;
28311;SDS011;15572;48.810;9.148;2024-02-15T14:40:20;3.15;;;1.38;;
28311;SDS011;15572;48.810;9.148;2024-02-15T14:45:17;2.03;;;1.30;;
28311;SDS011;15572;48.810;9.148;2024-02-15T14:50:13;3.60;;;1.50;;
28311;SDS011;15572;48.810;9.148;2024-02-15T14:55:10;2.53;;;1.53;;
28311;SDS011;15572;48.810;9.148;2024-02-15T15:00:08;4.60;;;1.70;;
28311;SDS011;15572;48.810;9.148;2024-02-15T15:05:08;2.60;;;1.40;;
28311;SDS011;15572;48.810;9.148;2024-02-15T15:10:23;2.90;;;1.70;;
28311;SDS011;15572;48.810;9.148;2024-02-15T15:15:38;2.58;;;1.23;;
28311;SDS011;15572;48.810;9.148;2024-02-15T15:20:35;4.95;;;1.50;;
28311;SDS011;15572;48.810;9.148;2024-02-15T15:25:32;2.35;;;1.42;;
28311;SDS011;15572;48.810;9.148;2024-02-15T15:30:28;6.70;;;1.90;;
28311;SDS011;15572;48.810;9.148;2024-02-15T15:35:27;4.80;;;1.70;;
28311;SDS011;15572;48.810;9.148;2024-02-15T15:40:24;5.23;;;1.57;;
28311;SDS011;15572;48.810;9.148;2024-02-15T15:45:21;5.97;;;2.43;;
28311;SDS011;15572;48.810;9.148;2024-02-15T15:50:18;2.60;;;1.90;;
28311;SDS011;15572;48.810;9.148;2024-02-15T15:55:17;4.60;;;1.90;;
28311;SDS011;15572;48.810;9.148;2024-02-15T16:00:14;4.50;;;1.87;;
28311;SDS011;15572;48.810;9.148;2024-02-15T16:05:11;3.83;;;1.97;;
28311;SDS011;15572;48.810;9.148;2024-02-15T16:10:08;2.53;;;1.43;;
28311;SDS011;15572;48.810;9.148;2024-02-15T16:15:08;4.73;;;1.73;;
28311;SDS011;15572;48.810;9.148;2024-02-15T16:20:08;5.57;;;1.80;;
28311;SDS011;15572;48.810;9.148;2024-02-15T16:25:06;2.40;;;1.70;;
28311;SDS011;15572;48.810;9.148;2024-02-15T16:30:04;8.03;;;1.90;;
28311;SDS011;15572;48.810;9.148;2024-02-15T16:35:05;3.30;;;1.80;;
28311;SDS011;15572;48.810;9.148;2024-02-15T16:40:05;4.30;;;1.90;;
28311;SDS011;15572;48.810;9.148;2024-02-15T16:45:04;7.27;;;1.60;;
28311;SDS011;15572;48.810;9.148;2024-02-15T16:50:02;4.03;;;1.53;;
28311;SDS011;15572;48.810;9.148;2024-02-15T16:55:01;3.80;;;1.33;;
28311;SDS011;15572;48.810;9.148;2024-02-15T16:59:57;5.03;;;1.73;;
28311;SDS011;15572;48.810;9.148;2024-02-15T17:04:53;3.33;;;1.60;;
28311;SDS011;15572;48.810;9.148;2024-02-15T17:09:50;3.97;;;1.83;;
28311;SDS011;15572;48.810;9.148;2024-02-15T17:14:48;2.97;;;1.53;;
28311;SDS011;15572;48.810;9.148;2024-02-15T17:19:45;3.10;;;1.77;;
28311;SDS011;15572;48.810;9.148;2024-02-15T17:24:42;6.23;;;2.10;;
28311;SDS011;15572;48.810;9.148;2024-02-15T17:29:38;5.20;;;2.63;;
28311;SDS011;15572;48.810;9.148;2024-02-15T17:34:36;7.10;;;2.33;;
28311;SDS011;15572;48.810;9.148;2024-02-15T17:39:32;9.37;;;3.30;;
28311;SDS011;15572;48.810;9.148;2024-02-15T17:44:29;12.10;;;3.27;;
28311;SDS011;15572;48.810;9.148;2024-02-15T17:49:26;7.07;;;3.50;;
28311;SDS011;15572;48.810;9.148;2024-02-15T17:54:25;8.10;;;4.33;;
28311;SDS011;15572;48.810;9.148;2024-02-15T17:59:21;9.77;;;5.20;;
28311;SDS011;15572;48.810;9.148;2024-02-15T18:04:18;9.43;;;4.50;;
28311;SDS011;15572;48.810;9.148;2024-02-15T18:09:14;9.17;;;3.93;;
28311;SDS011;15572;48.810;9.148;2024-02-15T18:14:12;7.73;;;2.90;;
28311;SDS011;15572;48.810;9.148;2024-02-15T18:19:08;5.57;;;2.43;;
28311;SDS011;15572;48.810;9.148;2024-02-15T18:24:05;4.33;;;2.47;;
28311;SDS011;15572;48.810;9.148;2024-02-15T18:29:02;6.17;;;2.97;;
28311;SDS011;15572;48.810;9.148;2024-02-15T18:33:59;7.57;;;3.00;;
28311;SDS011;15572;48.810;9.148;2024-02-15T18:38:56;7.80;;;3.20;;
28311;SDS011;15572;48.810;9.148;2024-02-15T18:43:53;4.07;;;2.67;;
28311;SDS011;15572;48.810;9.148;2024-02-15T18:48:49;6.80;;;2.90;;
28311;SDS011;15572;48.810;9.148;2024-02-15T18:53:47;3.47;;;2.53;;
28311;SDS011;15572;48.810;9.148;2024-02-15T18:58:44;5.57;;;3.17;;
28311;SDS011;15572;48.810;9.148;2024-02-15T19:03:40;8.60;;;3.87;;
28311;SDS011;15572;48.810;9.148;2024-02-15T19:08:37;12.27;;;4.90;;
28311;SDS011;15572;48.810;9.148;2024-02-15T19:13:35;11.23;;;6.03;;
28311;SDS011;15572;48.810;9.148;2024-02-15T19:18:32;10.87;;;6.10;;
28311;SDS011;15572;48.810;9.148;2024-02-15T19:23:30;12.13;;;6.93;;
28311;SDS011;15572;48.810;9.148;2024-02-15T19:28:27;9.47;;;6.07;;
28311;SDS011;15572;48.810;9.148;2024-02-15T19:33:24;10.47;;;5.37;;
28311;SDS011;15572;48.810;9.148;2024-02-15T19:38:21;11.57;;;5.50;;
28311;SDS011;15572;48.810;9.148;2024-02-15T19:43:18;10.33;;;5.97;;
28311;SDS011;15572;48.810;9.148;2024-02-15T19:48:15;9.70;;;6.10;;
28311;SDS011;15572;48.810;9.148;2024-02-15T19:53:15;9.20;;;5.27;;
28311;SDS011;15572;48.810;9.148;2024-02-15T19:58:15;6.27;;;4.50;;
28311;SDS011;15572;48.810;9.148;2024-02-15T20:03:11;7.63;;;4.90;;
28311;SDS011;15572;48.810;9.148;2024-02-15T20:08:08;10.50;;;5.47;;
28311;SDS011;15572;48.810;9.148;2024-02-15T20:13:06;6.80;;;4.57;;
28311;SDS011;15572;48.810;9.148;2024-02-15T20:18:02;7.60;;;4.30;;
28311;SDS011;15572;48.810;9.148;2024-02-15T20:22:59;6.47;;;4.43;;
28311;SDS011;15572;48.810;9.148;2024-02-15T20:27:55;6.40;;;3.30;;
28311;SDS011;15572;48.810;9.148;2024-02-15T20:32:55;4.70;;;3.50;;
28311;SDS011;15572;48.810;9.148;2024-02-15T20:37:51;6.90;;;3.50;;
28311;SDS011;15572;48.810;9.148;2024-02-15T20:42:48;8.70;;;3.77;;
28311;SDS011;15572;48.810;9.148;2024-02-15T20:47:44;9.40;;;3.77;;
28311;SDS011;15572;48.810;9.148;2024-02-15T20:52:43;7.33;;;3.90;;
28311;SDS011;15572;48.810;9.148;2024-02-15T20:57:40;7.00;;;4.07;;
28311;SDS011;15572;48.810;9.148;2024-02-15T21:02:36;8.37;;;4.03;;
28311;SDS011;15572;48.810;9.148;2024-02-15T21:07:33;8.63;;;4.30;;
28311;SDS011;15572;48.810;9.148;2024-02-15T21:12:31;7.33;;;4.60;;
28311;SDS011;15572;48.810;9.148;2024-02-15T21:17:28;10.03;;;5.50;;
28311;SDS011;15572;48.810;9.148;2024-02-15T21:22:25;9.07;;;5.03;;
28311;SDS011;15572;48.810;9.148;2024-02-15T21:27:24;9.43;;;5.73;;
28311;SDS011;15572;48.810;9.148;2024-02-15T21:32:22;8.17;;;5.40;;
28311;SDS011;15572;48.810;9.148;2024-02-15T21:37:18;8.70;;;5.67;;
28311;SDS011;15572;48.810;9.148;2024-02-15T21:42:19;8.97;;;5.27;;
28311;SDS011;15572;48.810;9.148;2024-02-15T21:47:15;10.13;;;5.27;;
28311;SDS011;15572;48.810;9.148;2024-02-15T21:52:13;9.50;;;5.97;;
28311;SDS011;15572;48.810;9.148;2024-02-15T21:57:10;14.43;;;9.37;;
28311;SDS011;15572;48.810;9.148;2024-02-15T22:02:07;15.10;;;9.17;;
28311;SDS011;15572;48.810;9.148;2024-02-15T22:07:03;10.87;;;7.50;;
28311;SDS011;15572;48.810;9.148;2024-02-15T22:12:03;14.87;;;11.17;;
28311;SDS011;15572;48.810;9.148;2024-02-15T22:17:00;10.60;;;6.77;;
28311;SDS011;15572;48.810;9.148;2024-02-15T22:21:56;10.57;;;6.47;;
28311;SDS011;15572;48.810;9.148;2024-02-15T22:26:53;10.07;;;4.87;;
28311;SDS011;15572;48.810;9.148;2024-02-15T22:31:54;6.67;;;4.33;;
28311;SDS011;15572;48.810;9.148;2024-02-15T22:36:51;7.13;;;4.87;;
28311;SDS011;15572;48.810;9.148;2024-02-15T22:41:47;8.50;;;4.10;;
28311;SDS011;15572;48.810;9.148;2024-02-15T22:46:44;9.03;;;4.50;;
28311;SDS011;15572;48.810;9.148;2024-02-15T22:51:44;8.27;;;4.70;;
28311;SDS011;15572;48.810;9.148;2024-02-15T22:56:40;7.97;;;4.40;;
28311;SDS011;15572;48.810;9.148;2024-02-15T23:01:37;5.70;;;3.80;;
28311;SDS011;15572;48.810;9.148;2024-02-15T23:06:35;6.73;;;3.70;;
28311;SDS011;15572;48.810;9.148;2024-02-15T23:11:33;9.00;;;4.70;;
28311;SDS011;15572;48.810;9.148;2024-02-15T23:16:31;7.07;;;3.97;;
28311;SDS011;15572;48.810;9.148;2024-02-15T23:21:27;9.33;;;3.37;;
28311;SDS011;15572;48.810;9.148;2024-02-15T23:26:24;6.97;;;3.47;;
28311;SDS011;15572;48.810;9.148;2024-02-15T23:31:22;6.67;;;4.10;;
28311;SDS011;15572;48.810;9.148;2024-02-15T23:36:18;8.00;;;4.03;;
28311;SDS011;15572;48.810;9.148;2024-02-15T23:41:32;6.27;;;3.90;;
28311;SDS011;15572;48.810;9.148;2024-02-15T23:46:30;6.73;;;3.40;;
28311;SDS011;15572;48.810;9.148;2024-02-15T23:51:27;6.27;;;3.30;;
28311;SDS011;15572;48.810;9.148;2024-02-15T23:56:23;6.53;;;3.47;;
